createdAt,value
2022-12-23T00:01:24.992Z,9.50
2022-12-23T00:03:57.921Z,9.50
2022-12-23T00:06:26.098Z,9.50
2022-12-23T00:08:58.122Z,9.50
2022-12-23T00:11:26.898Z,9.50
2022-12-23T00:14:19.966Z,9.50
2022-12-23T00:16:49.579Z,9.50
2022-12-23T00:19:18.965Z,9.50
2022-12-23T00:21:48.463Z,9.60
2022-12-23T00:24:16.571Z,9.50
2022-12-23T00:26:44.482Z,9.50
2022-12-23T00:29:12.422Z,8.60
2022-12-23T00:31:40.445Z,9.70
2022-12-23T00:34:08.446Z,9.50
2022-12-23T00:36:38.309Z,9.50
2022-12-23T00:39:24.002Z,9.50
2022-12-23T00:42:09.473Z,9.50
2022-12-23T00:44:37.422Z,9.50
2022-12-23T00:47:05.395Z,9.90
2022-12-23T00:49:44.395Z,9.50
2022-12-23T00:52:16.467Z,9.50
2022-12-23T00:54:44.435Z,9.50
2022-12-23T00:57:12.397Z,9.50
2022-12-23T00:59:40.396Z,9.60
2022-12-23T01:02:25.780Z,9.80
2022-12-23T01:05:11.116Z,9.60
2022-12-23T01:07:42.566Z,9.60
2022-12-23T01:10:11.257Z,9.70
2022-12-23T01:12:39.247Z,9.70
2022-12-23T01:15:08.466Z,9.70
2022-12-23T01:17:36.422Z,9.70
2022-12-23T01:20:04.989Z,9.60
2022-12-23T01:22:33.063Z,9.60
2022-12-23T01:25:02.705Z,9.60
2022-12-23T01:27:30.871Z,9.60
2022-12-23T01:29:58.826Z,9.60
2022-12-23T01:32:26.975Z,9.60
2022-12-23T01:34:54.931Z,9.60
2022-12-23T01:37:22.882Z,10.00
2022-12-23T01:39:50.845Z,9.60
2022-12-23T01:42:39.017Z,9.60
2022-12-23T01:45:14.503Z,9.50
2022-12-23T01:47:49.864Z,9.60
2022-12-23T01:50:23.696Z,9.60
2022-12-23T01:53:00.365Z,9.60
2022-12-23T01:55:33.475Z,9.50
2022-12-23T01:58:08.774Z,9.60
2022-12-23T02:00:54.334Z,9.60
2022-12-23T02:03:39.823Z,9.60
2022-12-23T02:06:26.125Z,9.50
2022-12-23T02:09:11.733Z,9.50
2022-12-23T02:12:07.262Z,9.50
2022-12-23T02:15:16.418Z,9.60
2022-12-23T02:17:57.194Z,9.50
2022-12-23T02:20:47.902Z,9.50
2022-12-23T02:23:55.490Z,9.50
2022-12-23T02:27:09.701Z,9.50
2022-12-23T02:30:20.320Z,9.50
2022-12-23T02:33:22.248Z,9.50
2022-12-23T02:35:59.823Z,9.50
2022-12-23T02:38:35.548Z,9.50
2022-12-23T02:41:12.202Z,9.50
2022-12-23T02:43:44.436Z,9.50
2022-12-23T02:46:16.077Z,9.50
2022-12-23T02:48:50.270Z,9.40
2022-12-23T02:51:20.633Z,9.50
2022-12-23T02:53:52.004Z,9.40
2022-12-23T02:56:22.647Z,9.40
2022-12-23T02:58:55.400Z,9.40
2022-12-23T03:01:25.648Z,9.90
2022-12-23T03:03:55.165Z,9.50
2022-12-23T03:06:27.174Z,9.40
2022-12-23T03:08:57.293Z,9.40
2022-12-23T03:11:40.053Z,9.60
2022-12-23T03:14:37.498Z,9.40
2022-12-23T03:17:31.055Z,9.40
2022-12-23T03:20:08.021Z,9.50
2022-12-23T03:22:39.596Z,9.40
2022-12-23T03:25:15.168Z,9.40
2022-12-23T03:27:49.041Z,9.40
2022-12-23T03:30:19.643Z,9.40
2022-12-23T03:32:50.408Z,9.40
2022-12-23T03:35:24.532Z,9.40
2022-12-23T03:37:54.817Z,9.40
2022-12-23T03:40:27.569Z,9.30
2022-12-23T03:43:01.229Z,9.90
2022-12-23T03:45:39.727Z,9.40
2022-12-23T03:48:16.016Z,9.40
2022-12-23T03:50:47.378Z,9.40
2022-12-23T03:53:21.117Z,9.40
2022-12-23T03:55:55.358Z,9.40
2022-12-23T03:58:29.646Z,9.40
2022-12-23T04:01:02.091Z,9.70
2022-12-23T04:03:33.316Z,9.80
2022-12-23T04:06:07.064Z,9.30
2022-12-23T04:08:38.011Z,9.30
2022-12-23T04:11:06.959Z,9.40
2022-12-23T04:13:34.870Z,9.30
2022-12-23T04:16:03.899Z,9.30
2022-12-23T04:18:31.880Z,9.30
2022-12-23T04:21:00.150Z,9.30
2022-12-23T04:23:29.492Z,9.30
2022-12-23T04:25:57.471Z,9.30
2022-12-23T04:28:25.445Z,9.20
2022-12-23T04:30:53.351Z,9.20
2022-12-23T04:33:21.337Z,9.20
2022-12-23T04:35:49.433Z,9.20
2022-12-23T04:38:17.402Z,9.20
2022-12-23T04:40:48.774Z,9.20
2022-12-23T04:43:16.860Z,9.20
2022-12-23T04:45:44.947Z,9.20
2022-12-23T04:48:12.919Z,9.20
2022-12-23T04:50:40.869Z,9.20
2022-12-23T04:53:08.823Z,9.40
2022-12-23T04:55:36.827Z,9.20
2022-12-23T04:58:06.214Z,9.20
2022-12-23T05:00:39.533Z,9.20
2022-12-23T05:03:08.241Z,9.20
2022-12-23T05:05:36.363Z,9.20
2022-12-23T05:08:06.132Z,9.20
2022-12-23T05:10:34.065Z,9.20
2022-12-23T05:13:02.199Z,9.20
2022-12-23T05:15:33.120Z,9.20
2022-12-23T05:18:01.072Z,9.10
2022-12-23T05:20:29.136Z,9.10
2022-12-23T05:22:57.165Z,9.10
2022-12-23T05:25:25.163Z,9.20
2022-12-23T05:27:53.117Z,9.10
2022-12-23T05:30:21.229Z,9.10
2022-12-23T05:32:54.417Z,9.10
2022-12-23T05:35:22.498Z,9.10
2022-12-23T05:37:50.568Z,9.10
2022-12-23T05:40:23.547Z,9.10
2022-12-23T05:42:55.904Z,9.10
2022-12-23T05:45:23.962Z,9.10
2022-12-23T05:47:53.278Z,9.10
2022-12-23T05:50:22.519Z,9.10
2022-12-23T05:52:50.466Z,9.10
2022-12-23T05:55:18.830Z,9.10
2022-12-23T05:57:46.737Z,9.10
2022-12-23T06:00:16.666Z,9.00
2022-12-23T06:02:49.965Z,9.10
2022-12-23T06:05:23.063Z,9.80
2022-12-23T06:07:51.507Z,9.10
2022-12-23T06:10:19.797Z,9.20
2022-12-23T06:12:47.933Z,9.10
2022-12-23T06:15:16.021Z,9.10
2022-12-23T06:17:44.066Z,9.10
2022-12-23T06:20:18.094Z,9.10
2022-12-23T06:22:49.316Z,9.10
2022-12-23T06:25:17.485Z,9.10
2022-12-23T06:27:45.378Z,9.10
2022-12-23T06:30:14.310Z,9.10
2022-12-23T06:32:42.359Z,9.10
2022-12-23T06:35:10.787Z,9.10
2022-12-23T06:37:38.818Z,9.10
2022-12-23T06:40:09.474Z,9.10
2022-12-23T06:42:37.446Z,9.10
2022-12-23T06:45:05.897Z,9.10
2022-12-23T06:47:33.767Z,9.10
2022-12-23T06:50:01.678Z,9.10
2022-12-23T06:52:29.573Z,9.10
2022-12-23T06:54:57.436Z,9.10
2022-12-23T06:57:26.700Z,9.10
2022-12-23T06:59:54.612Z,9.10
2022-12-23T07:02:22.637Z,9.10
2022-12-23T07:04:50.709Z,9.10
2022-12-23T07:07:18.661Z,9.10
2022-12-23T07:09:46.567Z,9.10
2022-12-23T07:12:14.596Z,9.10
2022-12-23T07:14:43.836Z,9.10
2022-12-23T07:17:11.825Z,9.00
2022-12-23T07:19:41.548Z,9.10
2022-12-23T07:22:10.235Z,9.10
2022-12-23T07:24:38.344Z,9.00
2022-12-23T07:27:06.387Z,9.00
2022-12-23T07:29:34.251Z,9.00
2022-12-23T07:32:04.023Z,9.00
2022-12-23T07:34:31.962Z,9.00
2022-12-23T07:36:59.948Z,9.00
2022-12-23T07:39:27.847Z,9.00
2022-12-23T07:42:16.434Z,9.00
2022-12-23T07:44:43.757Z,9.00
2022-12-23T07:47:13.205Z,9.00
2022-12-23T07:49:41.093Z,9.00
2022-12-23T07:52:08.974Z,9.00
2022-12-23T07:54:36.861Z,9.00
2022-12-23T07:57:04.820Z,9.00
2022-12-23T07:59:32.731Z,9.00
2022-12-23T08:02:00.772Z,9.00
2022-12-23T08:04:30.342Z,9.00
2022-12-23T08:06:58.255Z,9.00
2022-12-23T08:09:26.152Z,9.00
2022-12-23T08:11:54.070Z,9.00
2022-12-23T08:14:21.929Z,9.40
2022-12-23T08:16:49.955Z,9.00
2022-12-23T08:19:17.943Z,9.00
2022-12-23T08:21:47.234Z,9.00
2022-12-23T08:24:15.279Z,9.00
2022-12-23T08:26:43.209Z,9.00
2022-12-23T08:29:11.117Z,9.00
2022-12-23T08:31:39.023Z,9.00
2022-12-23T08:34:07.113Z,9.00
2022-12-23T08:36:36.476Z,9.00
2022-12-23T08:39:09.191Z,9.00
2022-12-23T08:41:40.095Z,9.00
2022-12-23T08:44:08.392Z,9.00
2022-12-23T08:46:36.797Z,9.00
2022-12-23T08:49:05.728Z,9.00
2022-12-23T08:51:33.905Z,9.00
2022-12-23T08:54:02.243Z,9.00
2022-12-23T08:56:34.383Z,9.00
2022-12-23T08:59:02.776Z,9.00
2022-12-23T09:01:33.145Z,9.10
2022-12-23T09:04:03.592Z,9.10
2022-12-23T09:06:34.773Z,9.00
2022-12-23T09:09:02.764Z,9.60
2022-12-23T09:11:32.181Z,9.10
2022-12-23T09:14:01.512Z,9.20
2022-12-23T09:16:30.501Z,9.10
2022-12-23T09:18:58.924Z,9.10
2022-12-23T09:21:27.113Z,9.10
2022-12-23T09:23:55.011Z,9.10
2022-12-23T09:26:24.597Z,9.10
2022-12-23T09:28:54.481Z,9.10
2022-12-23T09:31:22.948Z,9.10
2022-12-23T09:33:53.422Z,9.10
2022-12-23T09:36:22.438Z,9.10
2022-12-23T09:38:55.489Z,9.10
2022-12-23T09:41:46.330Z,9.10
2022-12-23T09:44:34.455Z,9.20
2022-12-23T09:47:05.045Z,9.20
2022-12-23T09:49:34.702Z,9.20
2022-12-23T09:52:06.160Z,9.60
2022-12-23T09:54:41.978Z,9.20
2022-12-23T09:57:18.980Z,9.20
2022-12-23T09:59:59.002Z,9.20
2022-12-23T10:02:42.231Z,9.20
2022-12-23T10:05:20.954Z,9.20
2022-12-23T10:07:52.597Z,9.20
2022-12-23T10:10:29.858Z,9.20
2022-12-23T10:13:01.389Z,9.20
2022-12-23T10:15:33.935Z,9.20
2022-12-23T10:18:06.419Z,9.20
2022-12-23T10:20:41.369Z,9.50
2022-12-23T10:23:16.996Z,9.20
2022-12-23T10:25:51.482Z,9.20
2022-12-23T10:28:20.004Z,9.60
2022-12-23T10:33:59.565Z,9.20
2022-12-23T10:36:36.322Z,10.10
2022-12-23T10:39:12.856Z,9.10
2022-12-23T10:41:49.339Z,9.20
2022-12-23T10:44:56.304Z,9.60
2022-12-23T10:47:37.222Z,9.20
2022-12-23T10:50:24.700Z,9.20
2022-12-23T10:52:56.492Z,9.20
2022-12-23T10:55:33.253Z,9.20
2022-12-23T10:58:07.881Z,9.40
2022-12-23T11:00:40.112Z,9.20
2022-12-23T11:03:18.036Z,9.20
2022-12-23T11:05:48.114Z,9.20
2022-12-23T11:08:16.332Z,9.20
2022-12-23T11:10:44.290Z,9.10
2022-12-23T11:13:12.588Z,9.20
2022-12-23T11:15:42.313Z,9.20
2022-12-23T11:18:19.324Z,9.20
2022-12-23T11:21:03.803Z,9.20
2022-12-23T11:23:35.809Z,9.20
2022-12-23T11:26:07.833Z,9.20
2022-12-23T11:28:38.039Z,9.10
2022-12-23T11:31:11.836Z,9.20
2022-12-23T11:33:46.945Z,9.30
2022-12-23T11:36:23.777Z,9.20
2022-12-23T11:38:53.639Z,9.20
2022-12-23T11:41:22.942Z,9.20
2022-12-23T11:43:58.601Z,9.20
2022-12-23T11:46:28.809Z,9.20
2022-12-23T11:49:18.586Z,9.20
2022-12-23T11:51:48.932Z,9.20
2022-12-23T11:54:21.899Z,9.20
2022-12-23T11:56:52.438Z,9.10
2022-12-23T11:59:32.093Z,9.20
2022-12-23T12:02:02.337Z,9.10
2022-12-23T12:04:33.840Z,9.20
2022-12-23T12:07:03.475Z,9.20
2022-12-23T12:09:32.802Z,9.40
2022-12-23T12:12:06.591Z,9.20
2022-12-23T12:14:44.262Z,9.20
2022-12-23T12:17:19.035Z,9.30
2022-12-23T12:19:59.004Z,9.40
2022-12-23T12:22:35.284Z,9.20
2022-12-23T12:25:13.320Z,9.20
2022-12-23T12:27:44.004Z,9.30
2022-12-23T12:30:18.088Z,9.30
2022-12-23T12:32:54.485Z,9.30
2022-12-23T12:35:32.134Z,9.30
2022-12-23T12:38:06.262Z,9.30
2022-12-23T12:40:39.797Z,9.30
2022-12-23T12:43:19.898Z,9.30
2022-12-23T12:45:54.015Z,9.40
2022-12-23T12:48:41.196Z,9.40
2022-12-23T12:51:18.917Z,9.30
2022-12-23T12:54:02.751Z,9.30
2022-12-23T12:56:37.903Z,9.40
2022-12-23T12:59:05.796Z,9.40
2022-12-23T13:01:47.291Z,9.40
2022-12-23T13:04:38.177Z,9.30
2022-12-23T13:07:14.591Z,9.30
2022-12-23T13:09:53.072Z,9.30
2022-12-23T13:12:25.780Z,9.30
2022-12-23T13:15:04.753Z,9.30
2022-12-23T13:17:37.653Z,9.30
2022-12-23T13:20:16.161Z,9.30
2022-12-23T13:22:46.812Z,9.30
2022-12-23T13:25:19.563Z,9.50
2022-12-23T13:27:56.162Z,9.40
2022-12-23T13:30:25.362Z,9.40
2022-12-23T13:33:09.466Z,9.50
2022-12-23T13:35:48.849Z,9.50
2022-12-23T13:38:35.510Z,9.40
2022-12-23T13:41:11.195Z,9.50
2022-12-23T13:43:44.308Z,9.50
2022-12-23T13:46:21.531Z,9.50
2022-12-23T13:48:54.795Z,9.50
2022-12-23T13:51:30.611Z,9.50
2022-12-23T13:54:11.462Z,9.50
2022-12-23T13:56:44.383Z,9.50
2022-12-23T13:59:14.007Z,9.50
2022-12-23T14:01:47.617Z,9.50
2022-12-23T14:04:57.518Z,9.50
2022-12-23T14:07:28.301Z,9.40
2022-12-23T14:09:59.981Z,9.40
2022-12-23T14:12:30.581Z,9.80
2022-12-23T14:15:33.886Z,9.50
2022-12-23T14:18:16.823Z,9.40
2022-12-23T14:20:50.571Z,9.40
2022-12-23T14:23:34.924Z,9.50
2022-12-23T14:26:21.662Z,9.50
2022-12-23T14:29:09.137Z,9.50
2022-12-23T14:31:41.154Z,9.50
2022-12-23T14:34:25.476Z,9.50
2022-12-23T14:37:32.762Z,9.50
2022-12-23T14:40:39.055Z,9.50
2022-12-23T14:43:28.743Z,9.40
2022-12-23T14:45:58.350Z,9.50
2022-12-23T14:49:37.102Z,9.50
2022-12-23T14:51:51.897Z,9.50
2022-12-23T14:54:38.785Z,9.50
2022-12-23T14:57:16.121Z,9.40
2022-12-23T14:59:51.358Z,10.50
2022-12-23T15:02:25.673Z,9.80
2022-12-23T15:04:57.089Z,9.40
2022-12-23T15:07:30.465Z,9.40
2022-12-23T15:10:01.502Z,9.40
2022-12-23T15:12:33.685Z,9.40
2022-12-23T15:15:06.759Z,9.40
2022-12-23T15:17:36.853Z,9.40
2022-12-23T15:20:13.922Z,9.40
2022-12-23T15:22:43.852Z,9.40
2022-12-23T15:25:31.486Z,9.60
2022-12-23T15:28:02.763Z,9.40
2022-12-23T15:30:35.983Z,9.50
2022-12-23T15:33:27.887Z,9.40
2022-12-23T15:35:55.674Z,9.40
2022-12-23T15:38:28.625Z,9.40
2022-12-23T15:41:00.752Z,10.00
2022-12-23T15:43:28.941Z,9.40
2022-12-23T15:46:06.031Z,9.40
2022-12-23T15:48:34.752Z,9.40
2022-12-23T15:51:06.406Z,9.40
2022-12-23T15:53:37.747Z,9.40
2022-12-23T15:56:09.750Z,9.60
2022-12-23T15:58:41.579Z,9.40
2022-12-23T16:01:16.278Z,9.40
2022-12-23T16:03:50.131Z,9.40
2022-12-23T16:06:21.618Z,9.50
2022-12-23T16:08:58.720Z,9.50
2022-12-23T16:11:40.070Z,9.50
2022-12-23T16:14:27.577Z,9.50
2022-12-23T16:17:00.821Z,9.50
2022-12-23T16:19:42.543Z,9.50
2022-12-23T16:22:20.048Z,9.60
2022-12-23T16:24:51.317Z,9.60
2022-12-23T16:27:21.292Z,9.70
2022-12-23T16:29:49.577Z,9.90
2022-12-23T16:32:20.385Z,9.90
2022-12-23T16:34:52.118Z,9.90
2022-12-23T16:37:20.058Z,9.50
2022-12-23T16:39:48.276Z,9.80
2022-12-23T16:42:16.200Z,9.90
2022-12-23T16:44:44.123Z,9.80
2022-12-23T16:47:18.353Z,9.80
2022-12-23T16:49:47.733Z,9.90
2022-12-23T16:52:16.494Z,9.90
2022-12-23T16:54:44.443Z,9.90
2022-12-23T16:57:12.477Z,10.50
2022-12-23T16:59:41.090Z,10.00
2022-12-23T17:02:18.289Z,10.00
2022-12-23T17:04:47.651Z,10.10
2022-12-23T17:07:15.615Z,10.10
2022-12-23T17:09:43.648Z,10.10
2022-12-23T17:12:11.972Z,10.20
2022-12-23T17:14:39.914Z,10.20
2022-12-23T17:17:14.401Z,10.10
2022-12-23T17:19:42.443Z,10.20
2022-12-23T17:22:14.089Z,10.20
2022-12-23T17:24:41.999Z,10.20
2022-12-23T17:27:14.504Z,10.30
2022-12-23T17:29:42.464Z,10.20
2022-12-23T17:32:12.464Z,10.20
2022-12-23T17:34:41.347Z,10.20
2022-12-23T17:37:16.205Z,10.20
2022-12-23T17:39:45.367Z,10.20
2022-12-23T17:42:23.303Z,10.20
2022-12-23T17:44:53.276Z,10.20
2022-12-23T17:47:23.211Z,10.40
2022-12-23T17:49:51.973Z,10.20
2022-12-23T17:52:23.388Z,10.20
2022-12-23T17:54:52.426Z,10.20
2022-12-23T17:57:22.684Z,10.20
2022-12-23T17:59:52.031Z,10.30
2022-12-23T18:02:26.245Z,10.20
2022-12-23T18:04:54.614Z,10.20
2022-12-23T18:07:23.877Z,10.20
2022-12-23T18:09:52.166Z,10.30
2022-12-23T18:12:31.195Z,10.30
2022-12-23T18:14:59.263Z,10.30
2022-12-23T18:17:27.667Z,10.30
2022-12-23T18:19:55.790Z,10.30
2022-12-23T18:22:27.165Z,10.30
2022-12-23T18:24:59.094Z,10.30
2022-12-23T18:27:27.444Z,10.30
2022-12-23T18:29:55.419Z,10.40
2022-12-23T18:32:25.052Z,10.40
2022-12-23T18:34:54.598Z,10.40
2022-12-23T18:37:25.139Z,10.40
2022-12-23T18:39:53.042Z,10.30
2022-12-23T18:42:21.721Z,10.40
2022-12-23T18:44:49.685Z,10.70
2022-12-23T18:47:17.945Z,10.60
2022-12-23T18:49:45.856Z,10.40
2022-12-23T18:52:13.763Z,10.40
2022-12-23T18:54:43.095Z,10.40
2022-12-23T18:57:11.695Z,10.30
2022-12-23T18:59:39.822Z,10.40
2022-12-23T19:02:08.085Z,10.40
2022-12-23T19:04:36.173Z,10.30
2022-12-23T19:07:04.213Z,10.30
2022-12-23T19:09:32.229Z,10.40
2022-12-23T19:12:01.489Z,10.30
2022-12-23T19:14:29.394Z,10.50
2022-12-23T19:17:00.401Z,10.30
2022-12-23T19:19:28.421Z,10.30
2022-12-23T19:21:56.357Z,10.30
2022-12-23T19:24:24.290Z,10.40
2022-12-23T19:26:52.277Z,10.40
2022-12-23T19:29:22.112Z,10.40
2022-12-23T19:31:50.187Z,10.60
2022-12-23T19:34:18.264Z,10.40
2022-12-23T19:36:46.263Z,10.40
2022-12-23T19:39:16.866Z,10.40
2022-12-23T19:44:37.338Z,10.40
2022-12-23T19:47:05.630Z,10.40
2022-12-23T19:49:36.637Z,10.40
2022-12-23T19:52:05.002Z,10.40
2022-12-23T19:54:33.563Z,10.40
2022-12-23T19:57:01.706Z,10.30
2022-12-23T19:59:29.750Z,10.30
2022-12-23T20:01:59.206Z,10.30
2022-12-23T20:04:27.319Z,10.30
2022-12-23T20:06:55.308Z,10.30
2022-12-23T20:09:23.302Z,11.10
2022-12-23T20:11:51.259Z,10.30
2022-12-23T20:14:21.747Z,10.20
2022-12-23T20:16:49.880Z,10.30
2022-12-23T20:19:19.609Z,10.30
2022-12-23T20:21:48.076Z,10.30
2022-12-23T20:24:17.119Z,10.30
2022-12-23T20:26:45.249Z,10.30
2022-12-23T20:29:13.243Z,10.30
2022-12-23T20:31:41.758Z,10.50
2022-12-23T20:34:14.540Z,10.30
2022-12-23T20:36:44.249Z,10.30
2022-12-23T20:39:12.171Z,10.30
2022-12-23T20:41:40.100Z,10.50
2022-12-23T20:46:56.124Z,10.30
2022-12-23T20:49:24.192Z,10.30
2022-12-23T20:51:53.559Z,10.30
2022-12-23T20:54:26.303Z,11.30
2022-12-23T20:56:57.937Z,10.40
2022-12-23T20:59:25.928Z,10.30
2022-12-23T21:01:54.994Z,10.50
2022-12-23T21:04:23.628Z,10.40
2022-12-23T21:06:53.433Z,11.20
2022-12-23T21:09:21.818Z,10.40
2022-12-23T21:11:50.363Z,10.30
2022-12-23T21:14:18.407Z,10.40
2022-12-23T21:16:46.805Z,10.50
2022-12-23T21:19:17.490Z,10.40
2022-12-23T21:21:45.797Z,10.40
2022-12-23T21:24:15.153Z,10.40
2022-12-23T21:26:43.736Z,10.40
2022-12-23T21:29:12.253Z,10.40
2022-12-23T21:31:42.069Z,10.40
2022-12-23T21:34:14.264Z,10.70
2022-12-23T21:36:43.599Z,10.30
2022-12-23T21:39:17.188Z,10.30
2022-12-23T21:41:45.995Z,10.30
2022-12-23T21:44:15.453Z,10.30
2022-12-23T21:46:43.630Z,10.20
2022-12-23T21:49:12.620Z,10.20
2022-12-23T21:51:41.813Z,10.20
2022-12-23T21:54:11.160Z,10.20
2022-12-23T21:56:42.124Z,11.10
2022-12-23T21:59:12.987Z,10.20
2022-12-23T22:01:41.628Z,10.10
2022-12-23T22:04:09.892Z,10.10
2022-12-23T22:06:40.243Z,10.10
2022-12-23T22:09:09.808Z,10.10
2022-12-23T22:11:40.203Z,10.10
2022-12-23T22:14:09.925Z,10.00
2022-12-23T22:16:38.247Z,10.00
2022-12-23T22:19:08.583Z,10.00
2022-12-23T22:21:37.317Z,9.90
2022-12-23T22:24:06.527Z,9.90
2022-12-23T22:26:34.736Z,9.90
2022-12-23T22:29:06.173Z,9.90
2022-12-23T22:31:39.690Z,9.90
2022-12-23T22:34:09.002Z,9.90
2022-12-23T22:36:37.295Z,9.90
2022-12-23T22:39:07.568Z,9.90
2022-12-23T22:41:36.314Z,9.90
2022-12-23T22:44:06.086Z,9.90
2022-12-23T22:46:34.297Z,9.80
2022-12-23T22:49:02.389Z,9.80
2022-12-23T22:51:31.600Z,9.80
2022-12-23T22:54:00.393Z,9.80
2022-12-23T22:56:28.952Z,10.00
2022-12-23T22:58:56.906Z,9.80
2022-12-23T23:01:28.161Z,9.80
2022-12-23T23:03:58.589Z,9.80
2022-12-23T23:06:27.710Z,9.80
2022-12-23T23:08:56.959Z,10.40
2022-12-23T23:11:26.573Z,9.80
2022-12-23T23:13:55.568Z,9.70
2022-12-23T23:16:24.379Z,9.80
2022-12-23T23:18:54.767Z,9.70
2022-12-23T23:21:23.300Z,10.60
2022-12-23T23:23:51.537Z,10.60
2022-12-23T23:26:21.025Z,9.80
2022-12-23T23:28:49.223Z,9.70
2022-12-23T23:31:41.382Z,9.80
2022-12-23T23:34:06.652Z,9.90
2022-12-23T23:36:34.824Z,9.70
2022-12-23T23:39:02.920Z,9.70
2022-12-23T23:41:32.871Z,9.70
2022-12-23T23:44:00.953Z,9.70
2022-12-23T23:46:30.512Z,9.70
2022-12-23T23:49:00.847Z,9.60
2022-12-23T23:51:30.751Z,9.60
2022-12-23T23:53:58.801Z,10.20
2022-12-23T23:56:28.852Z,9.50
2022-12-23T23:59:00.419Z,10.40
